TimeCST,TemperatureF,Dew PointF,Humidity,Sea Level PressureIn,VisibilityMPH,Wind Direction,Wind SpeedMPH,Gust SpeedMPH,PrecipitationIn,Events,Conditions,WindDirDegrees,DateUTC
12:15 AM,33.8,33.8,100,29.99,1.5,South,8.1,-,N/A,,Light Drizzle,170,2014-01-10 06:15:00
12:35 AM,33.8,33.8,100,29.97,0.8,South,9.2,-,N/A,,Light Drizzle,170,2014-01-10 06:35:00
12:55 AM,33.8,33.8,100,29.96,1.2,South,8.1,-,N/A,,Light Drizzle,180,2014-01-10 06:55:00
1:15 AM,33.8,33.8,100,29.95,1.5,South,8.1,-,N/A,,Light Drizzle,170,2014-01-10 07:15:00
1:35 AM,33.8,33.8,100,29.95,2.0,South,10.4,-,N/A,,Light Drizzle,180,2014-01-10 07:35:00
1:55 AM,33.8,33.8,100,29.93,1.8,South,10.4,-,N/A,,Light Drizzle,180,2014-01-10 07:55:00
2:15 AM,33.8,33.8,100,29.92,1.8,South,9.2,-,N/A,,Overcast,180,2014-01-10 08:15:00
2:35 AM,33.8,33.8,100,29.92,1.8,South,5.8,-,N/A,,Light Drizzle,180,2014-01-10 08:35:00
2:55 AM,33.8,33.8,100,29.91,1.8,South,6.9,-,N/A,,Light Drizzle,180,2014-01-10 08:55:00
3:15 AM,33.8,33.8,100,29.90,1.8,South,8.1,-,N/A,,Light Drizzle,180,2014-01-10 09:15:00
3:35 AM,33.8,33.8,100,29.87,1.5,SSE,10.4,-,N/A,Rain,Light Rain,150,2014-01-10 09:35:00
3:55 AM,33.8,33.8,100,29.86,1.5,SSE,6.9,-,N/A,,Drizzle,160,2014-01-10 09:55:00
4:15 AM,33.8,33.8,100,29.85,2.0,SSE,4.6,-,N/A,,Light Drizzle,160,2014-01-10 10:15:00
4:35 AM,33.8,33.8,100,29.84,1.8,South,8.1,-,N/A,,Light Drizzle,170,2014-01-10 10:35:00
4:55 AM,35.6,35.6,100,29.81,1.0,SSE,10.4,-,N/A,,Light Drizzle,160,2014-01-10 10:55:00
5:15 AM,35.6,35.6,100,29.80,0.8,SSE,12.7,-,N/A,,Light Drizzle,160,2014-01-10 11:15:00
5:35 AM,35.6,35.6,100,29.80,0.8,South,11.5,-,N/A,,Light Drizzle,170,2014-01-10 11:35:00
5:55 AM,35.6,35.6,100,29.78,1.5,South,10.4,-,N/A,,Drizzle,180,2014-01-10 11:55:00
6:15 AM,37.4,35.6,93,29.77,2.5,South,12.7,-,N/A,,Drizzle,170,2014-01-10 12:15:00
6:35 AM,37.4,37.4,100,29.76,2.0,South,13.8,-,N/A,,Light Drizzle,170,2014-01-10 12:35:00
6:55 AM,37.4,37.4,100,29.75,1.5,South,13.8,17.3,N/A,,Light Drizzle,180,2014-01-10 12:55:00
7:15 AM,37.4,37.4,100,29.75,1.0,South,16.1,20.7,N/A,,Light Drizzle,180,2014-01-10 13:15:00
7:35 AM,37.4,37.4,100,29.74,0.8,South,13.8,18.4,N/A,,Light Drizzle,180,2014-01-10 13:35:00
7:55 AM,39.2,37.4,93,29.73,0.8,South,17.3,-,N/A,,Light Drizzle,180,2014-01-10 13:55:00
8:15 AM,39.2,39.2,100,29.72,0.8,South,13.8,-,N/A,,Light Drizzle,190,2014-01-10 14:15:00
8:35 AM,39.2,39.2,100,29.71,0.2,South,10.4,-,N/A,,Light Drizzle,180,2014-01-10 14:35:00
8:55 AM,39.2,39.2,100,29.70,0.2,South,13.8,-,N/A,Fog,Fog,180,2014-01-10 14:55:00
9:15 AM,41.0,39.2,93,29.71,0.2,South,13.8,-,N/A,,Overcast,190,2014-01-10 15:15:00
9:35 AM,41.0,41.0,100,29.70,0.2,South,16.1,20.7,N/A,,Light Drizzle,180,2014-01-10 15:35:00
9:55 AM,42.8,42.8,100,29.69,0.2,South,18.4,27.6,N/A,,Light Drizzle,190,2014-01-10 15:55:00
10:15 AM,42.8,42.8,100,29.68,0.5,South,20.7,27.6,N/A,,Light Drizzle,170,2014-01-10 16:15:00
10:35 AM,44.6,44.6,100,29.68,0.8,South,18.4,25.3,N/A,,Light Drizzle,190,2014-01-10 16:35:00
10:55 AM,44.6,44.6,100,29.66,2.5,South,18.4,25.3,N/A,,Overcast,190,2014-01-10 16:55:00
11:15 AM,44.6,44.6,100,29.65,2.0,SSW,16.1,27.6,N/A,,Overcast,200,2014-01-10 17:15:00
11:35 AM,44.6,44.6,100,29.65,1.8,SSW,15.0,-,N/A,,Overcast,210,2014-01-10 17:35:00
11:55 AM,44.6,44.6,100,29.63,1.2,SSW,16.1,-,N/A,,Overcast,210,2014-01-10 17:55:00
12:15 PM,44.6,44.6,100,29.61,1.0,SSW,11.5,-,N/A,,Overcast,210,2014-01-10 18:15:00
12:35 PM,46.4,46.4,100,29.60,3.0,SSW,9.2,-,N/A,,Overcast,210,2014-01-10 18:35:00
12:55 PM,46.4,46.4,100,29.59,4.0,SSW,6.9,-,N/A,,Overcast,210,2014-01-10 18:55:00
1:15 PM,50.0,48.2,94,29.57,7.0,South,9.2,-,N/A,,Scattered Clouds,190,2014-01-10 19:15:00
1:35 PM,50.0,50.0,100,29.57,10.0,SSW,13.8,-,N/A,,Scattered Clouds,210,2014-01-10 19:35:00
1:55 PM,51.8,48.2,88,29.56,10.0,SW,12.7,18.4,N/A,,Mostly Cloudy,220,2014-01-10 19:55:00
2:15 PM,53.6,46.4,77,29.55,10.0,SW,13.8,21.9,N/A,,Scattered Clouds,230,2014-01-10 20:15:00
2:35 PM,51.8,44.6,76,29.55,10.0,WSW,13.8,20.7,N/A,,Scattered Clouds,240,2014-01-10 20:35:00
2:55 PM,51.8,44.6,76,29.55,10.0,WSW,15.0,-,N/A,,Scattered Clouds,250,2014-01-10 20:55:00
3:15 PM,53.6,42.8,67,29.56,10.0,SW,12.7,-,N/A,,Scattered Clouds,230,2014-01-10 21:15:00
3:35 PM,53.6,42.8,67,29.56,10.0,WSW,12.7,19.6,N/A,,Clear,240,2014-01-10 21:35:00
3:55 PM,53.6,41.0,62,29.57,10.0,WSW,15.0,-,N/A,,Clear,240,2014-01-10 21:55:00
4:15 PM,51.8,37.4,58,29.58,10.0,WSW,15.0,24.2,N/A,,Clear,250,2014-01-10 22:15:00
4:35 PM,50.0,39.2,66,29.60,10.0,West,11.5,-,N/A,,Clear,270,2014-01-10 22:35:00
4:55 PM,46.4,37.4,71,29.60,10.0,West,15.0,-,N/A,,Clear,270,2014-01-10 22:55:00
5:15 PM,44.6,35.6,71,29.62,10.0,West,10.4,-,N/A,,Clear,270,2014-01-10 23:15:00
5:35 PM,42.8,33.8,70,29.65,10.0,West,13.8,-,N/A,,Clear,270,2014-01-10 23:35:00
5:55 PM,41.0,33.8,76,29.65,10.0,West,8.1,-,N/A,,Clear,280,2014-01-10 23:55:00
6:15 PM,39.2,33.8,81,29.66,10.0,West,5.8,-,N/A,,Clear,280,2014-01-11 00:15:00
6:35 PM,41.0,33.8,76,29.66,10.0,West,4.6,-,N/A,,Clear,280,2014-01-11 00:35:00
6:55 PM,39.2,33.8,81,29.66,10.0,West,3.5,-,N/A,,Clear,280,2014-01-11 00:55:00
7:15 PM,35.6,32.0,87,29.66,10.0,Calm,Calm,-,N/A,,Clear,0,2014-01-11 01:15:00
7:35 PM,37.4,32.0,81,29.66,10.0,Calm,Calm,-,N/A,,Clear,0,2014-01-11 01:35:00
7:55 PM,33.8,32.0,93,29.67,7.0,WSW,3.5,-,N/A,,Clear,240,2014-01-11 01:55:00
8:15 PM,33.8,32.0,93,29.67,7.0,South,3.5,-,N/A,,Clear,180,2014-01-11 02:15:00
8:35 PM,32.0,30.2,93,29.67,7.0,South,4.6,-,N/A,,Clear,190,2014-01-11 02:35:00
8:55 PM,32.0,30.2,93,29.67,7.0,SSW,4.6,-,N/A,,Clear,200,2014-01-11 02:55:00
9:15 PM,32.0,32.0,100,29.67,7.0,SSW,4.6,-,N/A,,Clear,210,2014-01-11 03:15:00
9:35 PM,30.2,28.4,93,29.67,5.0,South,8.1,-,N/A,,Clear,170,2014-01-11 03:35:00
9:55 PM,30.2,30.2,100,29.67,5.0,SSW,8.1,-,N/A,,Clear,200,2014-01-11 03:55:00
10:15 PM,32.0,30.2,93,29.68,10.0,WSW,9.2,-,N/A,,Clear,250,2014-01-11 04:15:00
10:35 PM,33.8,32.0,93,29.68,10.0,West,10.4,-,N/A,,Clear,260,2014-01-11 04:35:00
10:55 PM,33.8,30.2,87,29.69,10.0,West,11.5,-,N/A,,Clear,280,2014-01-11 04:55:00
11:15 PM,33.8,30.2,87,29.70,10.0,WNW,9.2,-,N/A,,Clear,300,2014-01-11 05:15:00
11:35 PM,32.0,30.2,93,29.71,10.0,WNW,8.1,-,N/A,,Clear,300,2014-01-11 05:35:00
11:55 PM,32.0,30.2,93,29.71,10.0,West,5.8,-,N/A,,Clear,280,2014-01-11 05:55:00